sensor_id;sensor_type;location;lat;lon;timestamp;temperature;humidity
16728;DHT22;8482;54.396;18.590;2022-09-01T00:01:36;16.00;99.90
16728;DHT22;8482;54.396;18.590;2022-09-01T00:04:05;16.00;99.90
16728;DHT22;8482;54.396;18.590;2022-09-01T00:06:33;16.00;99.90
16728;DHT22;8482;54.396;18.590;2022-09-01T00:09:03;16.00;99.90
16728;DHT22;8482;54.396;18.590;2022-09-01T00:11:31;16.00;99.90
16728;DHT22;8482;54.396;18.590;2022-09-01T00:13:59;16.00;99.90
16728;DHT22;8482;54.396;18.590;2022-09-01T00:16:27;16.00;99.90
16728;DHT22;8482;54.396;18.590;2022-09-01T00:18:56;16.00;99.90
16728;DHT22;8482;54.396;18.590;2022-09-01T00:21:32;16.00;99.90
16728;DHT22;8482;54.396;18.590;2022-09-01T00:24:01;16.00;99.90
16728;DHT22;8482;54.396;18.590;2022-09-01T00:26:28;16.00;99.90
16728;DHT22;8482;54.396;18.590;2022-09-01T00:28:54;16.00;99.90
16728;DHT22;8482;54.396;18.590;2022-09-01T00:31:20;16.00;99.90
16728;DHT22;8482;54.396;18.590;2022-09-01T00:33:48;16.00;99.90
16728;DHT22;8482;54.396;18.590;2022-09-01T00:36:16;16.00;99.90
16728;DHT22;8482;54.396;18.590;2022-09-01T00:38:43;16.00;99.90
16728;DHT22;8482;54.396;18.590;2022-09-01T00:41:09;16.00;99.90
16728;DHT22;8482;54.396;18.590;2022-09-01T00:43:38;16.00;99.90
16728;DHT22;8482;54.396;18.590;2022-09-01T00:46:10;16.00;99.90
16728;DHT22;8482;54.396;18.590;2022-09-01T00:48:38;16.00;99.90
16728;DHT22;8482;54.396;18.590;2022-09-01T00:51:06;16.00;99.90
16728;DHT22;8482;54.396;18.590;2022-09-01T00:53:34;16.10;99.90
16728;DHT22;8482;54.396;18.590;2022-09-01T00:56:04;16.00;99.90
16728;DHT22;8482;54.396;18.590;2022-09-01T00:58:31;16.00;99.90
16728;DHT22;8482;54.396;18.590;2022-09-01T01:01:00;16.00;99.90
16728;DHT22;8482;54.396;18.590;2022-09-01T01:03:27;16.00;99.90
16728;DHT22;8482;54.396;18.590;2022-09-01T01:05:56;16.00;99.90
16728;DHT22;8482;54.396;18.590;2022-09-01T01:08:27;16.00;99.90
16728;DHT22;8482;54.396;18.590;2022-09-01T01:11:08;15.90;99.90
16728;DHT22;8482;54.396;18.590;2022-09-01T01:13:52;15.90;99.90
16728;DHT22;8482;54.396;18.590;2022-09-01T01:16:22;15.90;99.90
16728;DHT22;8482;54.396;18.590;2022-09-01T01:18:50;15.90;99.90
16728;DHT22;8482;54.396;18.590;2022-09-01T01:21:31;15.80;99.90
16728;DHT22;8482;54.396;18.590;2022-09-01T01:26:52;15.80;99.90
16728;DHT22;8482;54.396;18.590;2022-09-01T01:29:21;15.80;99.90
16728;DHT22;8482;54.396;18.590;2022-09-01T01:31:48;15.80;99.90
16728;DHT22;8482;54.396;18.590;2022-09-01T01:34:16;15.70;99.90
16728;DHT22;8482;54.396;18.590;2022-09-01T01:36:44;15.70;99.90
16728;DHT22;8482;54.396;18.590;2022-09-01T01:39:20;15.80;99.90
16728;DHT22;8482;54.396;18.590;2022-09-01T01:41:54;15.80;99.90
16728;DHT22;8482;54.396;18.590;2022-09-01T01:44:24;15.80;99.90
16728;DHT22;8482;54.396;18.590;2022-09-01T01:46:53;15.80;99.90
16728;DHT22;8482;54.396;18.590;2022-09-01T01:49:23;15.80;99.90
16728;DHT22;8482;54.396;18.590;2022-09-01T01:51:53;15.80;99.90
16728;DHT22;8482;54.396;18.590;2022-09-01T01:54:21;15.80;99.90
16728;DHT22;8482;54.396;18.590;2022-09-01T01:56:48;15.70;99.90
16728;DHT22;8482;54.396;18.590;2022-09-01T01:59:14;15.80;99.90
16728;DHT22;8482;54.396;18.590;2022-09-01T02:01:42;15.80;99.90
16728;DHT22;8482;54.396;18.590;2022-09-01T02:04:16;15.80;99.90
16728;DHT22;8482;54.396;18.590;2022-09-01T02:06:44;15.80;99.90
16728;DHT22;8482;54.396;18.590;2022-09-01T02:09:13;15.90;99.90
16728;DHT22;8482;54.396;18.590;2022-09-01T02:11:43;15.90;99.90
16728;DHT22;8482;54.396;18.590;2022-09-01T02:14:10;15.90;99.90
16728;DHT22;8482;54.396;18.590;2022-09-01T02:16:38;15.90;99.90
16728;DHT22;8482;54.396;18.590;2022-09-01T02:19:06;15.90;99.90
16728;DHT22;8482;54.396;18.590;2022-09-01T02:21:34;15.90;99.90
16728;DHT22;8482;54.396;18.590;2022-09-01T02:24:03;15.90;99.90
16728;DHT22;8482;54.396;18.590;2022-09-01T02:26:42;15.90;99.90
16728;DHT22;8482;54.396;18.590;2022-09-01T02:29:15;15.90;99.90
16728;DHT22;8482;54.396;18.590;2022-09-01T02:31:48;15.90;99.90
16728;DHT22;8482;54.396;18.590;2022-09-01T02:34:17;15.90;99.90
16728;DHT22;8482;54.396;18.590;2022-09-01T02:36:49;15.90;99.90
16728;DHT22;8482;54.396;18.590;2022-09-01T02:39:23;15.90;99.90
16728;DHT22;8482;54.396;18.590;2022-09-01T02:41:51;15.90;99.90
16728;DHT22;8482;54.396;18.590;2022-09-01T02:44:18;15.90;99.90
16728;DHT22;8482;54.396;18.590;2022-09-01T02:46:47;15.90;99.90
16728;DHT22;8482;54.396;18.590;2022-09-01T02:49:17;15.90;99.90
16728;DHT22;8482;54.396;18.590;2022-09-01T02:51:49;15.90;99.90
16728;DHT22;8482;54.396;18.590;2022-09-01T02:54:22;15.90;99.90
16728;DHT22;8482;54.396;18.590;2022-09-01T02:56:51;15.90;99.90
16728;DHT22;8482;54.396;18.590;2022-09-01T02:59:21;16.00;99.90
16728;DHT22;8482;54.396;18.590;2022-09-01T03:01:50;16.00;99.90
16728;DHT22;8482;54.396;18.590;2022-09-01T03:04:19;16.00;99.90
16728;DHT22;8482;54.396;18.590;2022-09-01T03:06:47;16.00;99.90
16728;DHT22;8482;54.396;18.590;2022-09-01T03:09:16;16.00;99.90
16728;DHT22;8482;54.396;18.590;2022-09-01T03:11:46;16.00;99.90
16728;DHT22;8482;54.396;18.590;2022-09-01T03:14:14;16.00;99.90
16728;DHT22;8482;54.396;18.590;2022-09-01T03:16:41;16.00;99.90
16728;DHT22;8482;54.396;18.590;2022-09-01T03:19:08;16.00;99.90
16728;DHT22;8482;54.396;18.590;2022-09-01T03:21:38;16.00;99.90
16728;DHT22;8482;54.396;18.590;2022-09-01T03:24:10;16.00;99.90
16728;DHT22;8482;54.396;18.590;2022-09-01T03:26:42;16.00;99.90
16728;DHT22;8482;54.396;18.590;2022-09-01T03:29:09;16.00;99.90
16728;DHT22;8482;54.396;18.590;2022-09-01T03:31:36;16.00;99.90
16728;DHT22;8482;54.396;18.590;2022-09-01T03:34:03;16.00;99.90
16728;DHT22;8482;54.396;18.590;2022-09-01T03:36:30;16.00;99.90
16728;DHT22;8482;54.396;18.590;2022-09-01T03:38:57;16.10;99.90
16728;DHT22;8482;54.396;18.590;2022-09-01T03:41:27;16.10;99.90
16728;DHT22;8482;54.396;18.590;2022-09-01T03:43:54;16.10;99.90
16728;DHT22;8482;54.396;18.590;2022-09-01T03:46:21;16.10;99.90
16728;DHT22;8482;54.396;18.590;2022-09-01T03:48:49;16.10;99.90
16728;DHT22;8482;54.396;18.590;2022-09-01T03:51:17;16.10;99.90
16728;DHT22;8482;54.396;18.590;2022-09-01T03:53:45;16.10;99.90
16728;DHT22;8482;54.396;18.590;2022-09-01T03:56:11;16.10;99.90
16728;DHT22;8482;54.396;18.590;2022-09-01T03:58:38;16.10;99.90
16728;DHT22;8482;54.396;18.590;2022-09-01T04:01:08;16.10;99.90
16728;DHT22;8482;54.396;18.590;2022-09-01T04:03:37;16.20;99.90
16728;DHT22;8482;54.396;18.590;2022-09-01T04:06:07;16.20;99.90
16728;DHT22;8482;54.396;18.590;2022-09-01T04:08:35;16.20;99.90
16728;DHT22;8482;54.396;18.590;2022-09-01T04:11:04;16.20;99.90
16728;DHT22;8482;54.396;18.590;2022-09-01T04:13:39;16.20;99.90
16728;DHT22;8482;54.396;18.590;2022-09-01T04:16:11;16.20;99.90
16728;DHT22;8482;54.396;18.590;2022-09-01T04:19:04;16.20;99.90
16728;DHT22;8482;54.396;18.590;2022-09-01T04:21:41;16.20;99.90
16728;DHT22;8482;54.396;18.590;2022-09-01T04:24:08;16.30;99.90
16728;DHT22;8482;54.396;18.590;2022-09-01T04:26:35;16.30;99.90
16728;DHT22;8482;54.396;18.590;2022-09-01T04:29:02;16.20;99.90
16728;DHT22;8482;54.396;18.590;2022-09-01T04:31:28;16.30;99.90
16728;DHT22;8482;54.396;18.590;2022-09-01T04:33:55;16.30;99.90
16728;DHT22;8482;54.396;18.590;2022-09-01T04:36:25;16.20;99.90
16728;DHT22;8482;54.396;18.590;2022-09-01T04:38:59;16.30;99.90
16728;DHT22;8482;54.396;18.590;2022-09-01T04:41:28;16.30;99.90
16728;DHT22;8482;54.396;18.590;2022-09-01T04:43:58;16.30;99.90
16728;DHT22;8482;54.396;18.590;2022-09-01T04:46:30;16.30;99.90
16728;DHT22;8482;54.396;18.590;2022-09-01T04:49:01;16.30;99.90
16728;DHT22;8482;54.396;18.590;2022-09-01T04:51:43;16.30;99.90
16728;DHT22;8482;54.396;18.590;2022-09-01T04:54:12;16.30;99.90
16728;DHT22;8482;54.396;18.590;2022-09-01T04:56:44;16.30;99.90
16728;DHT22;8482;54.396;18.590;2022-09-01T04:59:14;16.30;99.90
16728;DHT22;8482;54.396;18.590;2022-09-01T05:01:41;16.30;99.90
16728;DHT22;8482;54.396;18.590;2022-09-01T05:04:19;16.30;99.90
16728;DHT22;8482;54.396;18.590;2022-09-01T05:06:50;16.30;99.90
16728;DHT22;8482;54.396;18.590;2022-09-01T05:09:25;16.30;99.90
16728;DHT22;8482;54.396;18.590;2022-09-01T05:11:53;16.30;99.90
16728;DHT22;8482;54.396;18.590;2022-09-01T05:14:21;16.30;99.90
16728;DHT22;8482;54.396;18.590;2022-09-01T05:16:48;16.30;99.90
16728;DHT22;8482;54.396;18.590;2022-09-01T05:19:15;16.30;99.90
16728;DHT22;8482;54.396;18.590;2022-09-01T05:21:46;16.30;99.90
16728;DHT22;8482;54.396;18.590;2022-09-01T05:24:15;16.30;99.90
16728;DHT22;8482;54.396;18.590;2022-09-01T05:26:44;16.30;99.90
16728;DHT22;8482;54.396;18.590;2022-09-01T05:29:12;16.30;99.90
16728;DHT22;8482;54.396;18.590;2022-09-01T05:31:41;16.30;99.90
16728;DHT22;8482;54.396;18.590;2022-09-01T05:34:10;16.30;99.90
16728;DHT22;8482;54.396;18.590;2022-09-01T05:36:41;16.40;99.90
16728;DHT22;8482;54.396;18.590;2022-09-01T05:39:09;16.40;99.90
16728;DHT22;8482;54.396;18.590;2022-09-01T05:41:38;16.40;99.90
16728;DHT22;8482;54.396;18.590;2022-09-01T05:44:06;16.40;99.90
16728;DHT22;8482;54.396;18.590;2022-09-01T05:46:35;16.40;99.90
16728;DHT22;8482;54.396;18.590;2022-09-01T05:49:03;16.40;99.90
16728;DHT22;8482;54.396;18.590;2022-09-01T05:51:32;16.50;99.90
16728;DHT22;8482;54.396;18.590;2022-09-01T05:54:01;16.50;99.90
16728;DHT22;8482;54.396;18.590;2022-09-01T05:56:29;16.50;99.90
16728;DHT22;8482;54.396;18.590;2022-09-01T05:58:55;16.60;99.90
16728;DHT22;8482;54.396;18.590;2022-09-01T06:01:25;16.60;99.90
16728;DHT22;8482;54.396;18.590;2022-09-01T06:03:55;16.60;99.90
16728;DHT22;8482;54.396;18.590;2022-09-01T06:06:27;16.70;99.90
16728;DHT22;8482;54.396;18.590;2022-09-01T06:08:55;16.70;99.90
16728;DHT22;8482;54.396;18.590;2022-09-01T06:11:25;16.70;99.90
16728;DHT22;8482;54.396;18.590;2022-09-01T06:13:52;16.70;99.90
16728;DHT22;8482;54.396;18.590;2022-09-01T06:16:20;16.70;99.90
16728;DHT22;8482;54.396;18.590;2022-09-01T06:18:49;16.80;99.90
16728;DHT22;8482;54.396;18.590;2022-09-01T06:21:20;16.80;99.90
16728;DHT22;8482;54.396;18.590;2022-09-01T06:23:47;16.80;99.90
16728;DHT22;8482;54.396;18.590;2022-09-01T06:26:25;16.90;99.90
16728;DHT22;8482;54.396;18.590;2022-09-01T06:28:55;16.90;99.90
16728;DHT22;8482;54.396;18.590;2022-09-01T06:31:24;16.90;99.90
16728;DHT22;8482;54.396;18.590;2022-09-01T06:33:53;16.90;99.90
16728;DHT22;8482;54.396;18.590;2022-09-01T06:36:23;17.00;99.90
16728;DHT22;8482;54.396;18.590;2022-09-01T06:38:51;17.00;99.90
16728;DHT22;8482;54.396;18.590;2022-09-01T06:41:19;17.00;99.90
16728;DHT22;8482;54.396;18.590;2022-09-01T06:43:49;17.10;99.90
16728;DHT22;8482;54.396;18.590;2022-09-01T06:46:17;17.10;99.90
16728;DHT22;8482;54.396;18.590;2022-09-01T06:48:45;17.10;99.90
16728;DHT22;8482;54.396;18.590;2022-09-01T06:51:17;17.20;99.90
16728;DHT22;8482;54.396;18.590;2022-09-01T06:53:46;17.20;99.90
16728;DHT22;8482;54.396;18.590;2022-09-01T06:56:17;17.20;99.90
16728;DHT22;8482;54.396;18.590;2022-09-01T06:58:44;17.30;99.90
16728;DHT22;8482;54.396;18.590;2022-09-01T07:01:14;17.30;99.90
16728;DHT22;8482;54.396;18.590;2022-09-01T07:03:47;17.30;99.90
16728;DHT22;8482;54.396;18.590;2022-09-01T07:06:15;17.30;99.90
16728;DHT22;8482;54.396;18.590;2022-09-01T07:08:43;17.40;99.90
16728;DHT22;8482;54.396;18.590;2022-09-01T07:11:23;17.40;99.90
16728;DHT22;8482;54.396;18.590;2022-09-01T07:13:58;17.50;99.90
16728;DHT22;8482;54.396;18.590;2022-09-01T07:16:30;17.50;99.90
16728;DHT22;8482;54.396;18.590;2022-09-01T07:19:01;17.60;99.90
16728;DHT22;8482;54.396;18.590;2022-09-01T07:21:29;17.60;99.90
16728;DHT22;8482;54.396;18.590;2022-09-01T07:23:57;17.60;99.90
16728;DHT22;8482;54.396;18.590;2022-09-01T07:26:26;17.60;99.90
16728;DHT22;8482;54.396;18.590;2022-09-01T07:28:53;17.60;99.90
16728;DHT22;8482;54.396;18.590;2022-09-01T07:31:23;17.70;99.90
16728;DHT22;8482;54.396;18.590;2022-09-01T07:33:55;17.70;99.90
16728;DHT22;8482;54.396;18.590;2022-09-01T07:36:23;17.70;99.90
16728;DHT22;8482;54.396;18.590;2022-09-01T07:38:50;17.70;99.90
16728;DHT22;8482;54.396;18.590;2022-09-01T07:41:21;17.80;99.90
16728;DHT22;8482;54.396;18.590;2022-09-01T07:43:49;17.80;99.90
16728;DHT22;8482;54.396;18.590;2022-09-01T07:46:19;17.80;99.90
16728;DHT22;8482;54.396;18.590;2022-09-01T07:48:45;17.90;99.90
16728;DHT22;8482;54.396;18.590;2022-09-01T07:51:13;17.90;99.90
16728;DHT22;8482;54.396;18.590;2022-09-01T07:53:42;17.90;99.90
16728;DHT22;8482;54.396;18.590;2022-09-01T07:56:10;18.00;99.90
16728;DHT22;8482;54.396;18.590;2022-09-01T07:58:38;18.00;99.90
16728;DHT22;8482;54.396;18.590;2022-09-01T08:01:14;18.10;99.90
16728;DHT22;8482;54.396;18.590;2022-09-01T08:03:45;18.10;99.90
16728;DHT22;8482;54.396;18.590;2022-09-01T08:06:14;18.20;99.90
16728;DHT22;8482;54.396;18.590;2022-09-01T08:08:44;18.30;99.90
16728;DHT22;8482;54.396;18.590;2022-09-01T08:11:16;18.30;99.90
16728;DHT22;8482;54.396;18.590;2022-09-01T08:13:43;18.40;99.90
16728;DHT22;8482;54.396;18.590;2022-09-01T08:16:09;18.40;99.90
16728;DHT22;8482;54.396;18.590;2022-09-01T08:18:36;18.50;99.90
16728;DHT22;8482;54.396;18.590;2022-09-01T08:21:10;18.50;99.90
16728;DHT22;8482;54.396;18.590;2022-09-01T08:23:37;18.60;99.90
16728;DHT22;8482;54.396;18.590;2022-09-01T08:26:06;18.60;99.90
16728;DHT22;8482;54.396;18.590;2022-09-01T08:28:33;18.70;99.90
16728;DHT22;8482;54.396;18.590;2022-09-01T08:30:59;18.80;99.90
16728;DHT22;8482;54.396;18.590;2022-09-01T08:33:29;18.80;99.90
16728;DHT22;8482;54.396;18.590;2022-09-01T08:35:58;18.80;99.90
16728;DHT22;8482;54.396;18.590;2022-09-01T08:38:25;18.90;99.90
16728;DHT22;8482;54.396;18.590;2022-09-01T08:40:54;18.90;99.90
16728;DHT22;8482;54.396;18.590;2022-09-01T08:48:59;19.00;99.10
16728;DHT22;8482;54.396;18.590;2022-09-01T08:51:37;19.10;99.20
16728;DHT22;8482;54.396;18.590;2022-09-01T08:57:18;19.10;99.20
16728;DHT22;8482;54.396;18.590;2022-09-01T08:59:48;19.10;98.60
16728;DHT22;8482;54.396;18.590;2022-09-01T09:17:09;19.30;97.80
16728;DHT22;8482;54.396;18.590;2022-09-01T09:19:41;19.30;98.70
16728;DHT22;8482;54.396;18.590;2022-09-01T09:22:10;19.30;99.10
16728;DHT22;8482;54.396;18.590;2022-09-01T09:24:52;19.30;99.50
16728;DHT22;8482;54.396;18.590;2022-09-01T09:27:26;19.30;99.50
16728;DHT22;8482;54.396;18.590;2022-09-01T09:30:18;19.30;99.60
16728;DHT22;8482;54.396;18.590;2022-09-01T09:32:52;19.40;99.70
16728;DHT22;8482;54.396;18.590;2022-09-01T09:35:40;19.40;99.90
16728;DHT22;8482;54.396;18.590;2022-09-01T09:41:07;19.40;99.90
16728;DHT22;8482;54.396;18.590;2022-09-01T09:43:41;19.40;99.90
16728;DHT22;8482;54.396;18.590;2022-09-01T09:46:38;19.30;99.90
16728;DHT22;8482;54.396;18.590;2022-09-01T09:54:36;19.10;99.90
16728;DHT22;8482;54.396;18.590;2022-09-01T10:04:52;18.70;99.90
16728;DHT22;8482;54.396;18.590;2022-09-01T10:07:26;18.60;99.90
16728;DHT22;8482;54.396;18.590;2022-09-01T10:09:57;18.60;99.90
16728;DHT22;8482;54.396;18.590;2022-09-01T10:12:25;18.50;99.90
16728;DHT22;8482;54.396;18.590;2022-09-01T10:15:16;18.40;99.90
16728;DHT22;8482;54.396;18.590;2022-09-01T10:17:43;18.40;99.90
16728;DHT22;8482;54.396;18.590;2022-09-01T10:20:23;18.30;99.90
16728;DHT22;8482;54.396;18.590;2022-09-01T10:22:51;18.30;99.90
16728;DHT22;8482;54.396;18.590;2022-09-01T10:25:25;18.30;99.90
16728;DHT22;8482;54.396;18.590;2022-09-01T10:27:58;18.30;99.90
16728;DHT22;8482;54.396;18.590;2022-09-01T10:30:31;18.30;99.90
16728;DHT22;8482;54.396;18.590;2022-09-01T10:32:59;18.30;99.90
16728;DHT22;8482;54.396;18.590;2022-09-01T10:35:27;18.30;99.90
16728;DHT22;8482;54.396;18.590;2022-09-01T10:37:56;18.30;99.90
16728;DHT22;8482;54.396;18.590;2022-09-01T10:43:21;18.40;99.90
16728;DHT22;8482;54.396;18.590;2022-09-01T10:45:58;18.50;99.90
16728;DHT22;8482;54.396;18.590;2022-09-01T10:48:29;18.60;99.90
16728;DHT22;8482;54.396;18.590;2022-09-01T10:53:49;18.80;99.90
16728;DHT22;8482;54.396;18.590;2022-09-01T10:56:36;18.90;99.90
16728;DHT22;8482;54.396;18.590;2022-09-01T10:59:24;19.00;99.90
16728;DHT22;8482;54.396;18.590;2022-09-01T11:07:29;19.40;99.90
16728;DHT22;8482;54.396;18.590;2022-09-01T11:12:47;19.60;99.90
16728;DHT22;8482;54.396;18.590;2022-09-01T11:15:47;19.60;99.90
16728;DHT22;8482;54.396;18.590;2022-09-01T11:18:25;19.80;99.90
16728;DHT22;8482;54.396;18.590;2022-09-01T11:21:25;19.80;99.90
16728;DHT22;8482;54.396;18.590;2022-09-01T11:30:19;20.20;98.30
16728;DHT22;8482;54.396;18.590;2022-09-01T11:35:42;20.50;97.60
16728;DHT22;8482;54.396;18.590;2022-09-01T11:38:14;20.60;97.20
16728;DHT22;8482;54.396;18.590;2022-09-01T11:40:42;20.70;96.90
16728;DHT22;8482;54.396;18.590;2022-09-01T11:43:19;20.70;96.50
16728;DHT22;8482;54.396;18.590;2022-09-01T11:46:24;20.80;96.50
16728;DHT22;8482;54.396;18.590;2022-09-01T11:48:53;21.00;96.50
16728;DHT22;8482;54.396;18.590;2022-09-01T11:51:20;21.00;96.30
16728;DHT22;8482;54.396;18.590;2022-09-01T11:53:46;21.10;96.20
16728;DHT22;8482;54.396;18.590;2022-09-01T11:56:19;21.20;95.80
16728;DHT22;8482;54.396;18.590;2022-09-01T11:58:49;21.20;95.90
16728;DHT22;8482;54.396;18.590;2022-09-01T12:01:35;21.30;96.10
16728;DHT22;8482;54.396;18.590;2022-09-01T12:04:22;21.30;96.40
16728;DHT22;8482;54.396;18.590;2022-09-01T12:06:58;21.40;96.50
16728;DHT22;8482;54.396;18.590;2022-09-01T12:09:42;21.40;96.50
16728;DHT22;8482;54.396;18.590;2022-09-01T12:15:10;21.60;96.30
16728;DHT22;8482;54.396;18.590;2022-09-01T12:17:43;21.70;96.40
16728;DHT22;8482;54.396;18.590;2022-09-01T12:20:36;21.70;96.20
16728;DHT22;8482;54.396;18.590;2022-09-01T12:25:57;22.00;96.10
16728;DHT22;8482;54.396;18.590;2022-09-01T12:28:27;22.00;95.40
16728;DHT22;8482;54.396;18.590;2022-09-01T12:30:57;22.10;94.60
16728;DHT22;8482;54.396;18.590;2022-09-01T12:33:25;22.10;94.10
16728;DHT22;8482;54.396;18.590;2022-09-01T12:35:52;22.10;93.90
16728;DHT22;8482;54.396;18.590;2022-09-01T12:38:41;22.20;93.10
16728;DHT22;8482;54.396;18.590;2022-09-01T12:41:34;22.20;92.40
16728;DHT22;8482;54.396;18.590;2022-09-01T12:44:25;22.30;92.00
16728;DHT22;8482;54.396;18.590;2022-09-01T12:46:57;22.30;91.50
16728;DHT22;8482;54.396;18.590;2022-09-01T12:49:37;22.30;90.60
16728;DHT22;8482;54.396;18.590;2022-09-01T12:52:25;22.40;90.50
16728;DHT22;8482;54.396;18.590;2022-09-01T12:55:11;22.50;90.00
16728;DHT22;8482;54.396;18.590;2022-09-01T12:57:49;22.50;90.10
16728;DHT22;8482;54.396;18.590;2022-09-01T13:00:19;22.60;90.10
16728;DHT22;8482;54.396;18.590;2022-09-01T13:02:49;22.70;90.10
16728;DHT22;8482;54.396;18.590;2022-09-01T13:05:30;22.70;89.00
16728;DHT22;8482;54.396;18.590;2022-09-01T13:08:06;22.70;88.90
16728;DHT22;8482;54.396;18.590;2022-09-01T13:10:38;22.80;88.80
16728;DHT22;8482;54.396;18.590;2022-09-01T13:13:27;22.90;88.10
16728;DHT22;8482;54.396;18.590;2022-09-01T13:15:57;23.00;88.60
16728;DHT22;8482;54.396;18.590;2022-09-01T13:18:38;23.10;88.60
16728;DHT22;8482;54.396;18.590;2022-09-01T13:21:05;23.10;87.90
16728;DHT22;8482;54.396;18.590;2022-09-01T13:23:32;23.30;87.90
16728;DHT22;8482;54.396;18.590;2022-09-01T13:25:58;23.40;86.90
16728;DHT22;8482;54.396;18.590;2022-09-01T13:28:24;23.50;85.60
16728;DHT22;8482;54.396;18.590;2022-09-01T13:31:00;23.60;85.00
16728;DHT22;8482;54.396;18.590;2022-09-01T13:33:30;23.70;83.90
16728;DHT22;8482;54.396;18.590;2022-09-01T13:35:57;23.80;83.00
16728;DHT22;8482;54.396;18.590;2022-09-01T13:38:23;24.00;83.30
16728;DHT22;8482;54.396;18.590;2022-09-01T13:40:50;24.00;81.10
16728;DHT22;8482;54.396;18.590;2022-09-01T13:43:19;24.00;80.50
16728;DHT22;8482;54.396;18.590;2022-09-01T13:45:47;24.00;80.30
16728;DHT22;8482;54.396;18.590;2022-09-01T13:48:15;23.90;80.20
16728;DHT22;8482;54.396;18.590;2022-09-01T13:50:42;23.80;80.30
16728;DHT22;8482;54.396;18.590;2022-09-01T13:53:10;23.80;80.20
16728;DHT22;8482;54.396;18.590;2022-09-01T13:55:40;23.80;80.50
16728;DHT22;8482;54.396;18.590;2022-09-01T13:58:08;23.60;80.00
16728;DHT22;8482;54.396;18.590;2022-09-01T14:00:40;23.60;80.30
16728;DHT22;8482;54.396;18.590;2022-09-01T14:03:26;23.60;80.40
16728;DHT22;8482;54.396;18.590;2022-09-01T14:05:52;23.50;78.40
16728;DHT22;8482;54.396;18.590;2022-09-01T14:08:20;23.50;77.80
16728;DHT22;8482;54.396;18.590;2022-09-01T14:10:49;23.60;77.60
16728;DHT22;8482;54.396;18.590;2022-09-01T14:13:18;23.70;78.50
16728;DHT22;8482;54.396;18.590;2022-09-01T14:15:48;23.70;78.40
16728;DHT22;8482;54.396;18.590;2022-09-01T14:18:15;23.80;78.20
16728;DHT22;8482;54.396;18.590;2022-09-01T14:20:44;23.90;77.70
16728;DHT22;8482;54.396;18.590;2022-09-01T14:23:12;24.00;77.60
16728;DHT22;8482;54.396;18.590;2022-09-01T14:25:47;24.00;77.50
16728;DHT22;8482;54.396;18.590;2022-09-01T14:28:15;24.10;78.00
16728;DHT22;8482;54.396;18.590;2022-09-01T14:30:42;24.10;78.00
16728;DHT22;8482;54.396;18.590;2022-09-01T14:33:08;24.20;78.00
16728;DHT22;8482;54.396;18.590;2022-09-01T14:35:40;24.20;77.80
16728;DHT22;8482;54.396;18.590;2022-09-01T14:38:08;24.20;77.70
16728;DHT22;8482;54.396;18.590;2022-09-01T14:40:37;24.20;76.80
16728;DHT22;8482;54.396;18.590;2022-09-01T14:43:05;24.30;76.10
16728;DHT22;8482;54.396;18.590;2022-09-01T14:45:34;24.30;76.30
16728;DHT22;8482;54.396;18.590;2022-09-01T14:48:02;24.50;78.30
16728;DHT22;8482;54.396;18.590;2022-09-01T14:50:30;24.50;78.80
16728;DHT22;8482;54.396;18.590;2022-09-01T14:52:58;24.50;80.20
16728;DHT22;8482;54.396;18.590;2022-09-01T14:55:26;24.50;80.50
16728;DHT22;8482;54.396;18.590;2022-09-01T14:57:54;24.50;81.30
16728;DHT22;8482;54.396;18.590;2022-09-01T15:00:22;24.60;80.60
16728;DHT22;8482;54.396;18.590;2022-09-01T15:02:49;24.60;80.90
16728;DHT22;8482;54.396;18.590;2022-09-01T15:05:16;24.60;80.30
16728;DHT22;8482;54.396;18.590;2022-09-01T15:07:42;24.60;78.50
16728;DHT22;8482;54.396;18.590;2022-09-01T15:10:10;24.60;78.30
16728;DHT22;8482;54.396;18.590;2022-09-01T15:12:40;24.60;78.10
16728;DHT22;8482;54.396;18.590;2022-09-01T15:15:07;24.60;77.80
16728;DHT22;8482;54.396;18.590;2022-09-01T15:17:34;24.50;77.10
16728;DHT22;8482;54.396;18.590;2022-09-01T15:20:01;24.50;76.30
16728;DHT22;8482;54.396;18.590;2022-09-01T15:22:48;24.40;75.40
16728;DHT22;8482;54.396;18.590;2022-09-01T15:25:16;24.40;73.90
16728;DHT22;8482;54.396;18.590;2022-09-01T15:27:43;24.30;73.10
16728;DHT22;8482;54.396;18.590;2022-09-01T15:30:11;24.20;73.10
16728;DHT22;8482;54.396;18.590;2022-09-01T15:32:47;24.10;74.00
16728;DHT22;8482;54.396;18.590;2022-09-01T15:35:15;24.00;74.50
16728;DHT22;8482;54.396;18.590;2022-09-01T15:37:42;23.80;75.10
16728;DHT22;8482;54.396;18.590;2022-09-01T15:40:10;23.60;75.50
16728;DHT22;8482;54.396;18.590;2022-09-01T15:42:37;23.30;75.90
16728;DHT22;8482;54.396;18.590;2022-09-01T15:45:14;23.10;76.70
16728;DHT22;8482;54.396;18.590;2022-09-01T15:47:46;22.90;77.00
16728;DHT22;8482;54.396;18.590;2022-09-01T15:50:19;22.70;77.60
16728;DHT22;8482;54.396;18.590;2022-09-01T15:53:01;22.60;78.80
16728;DHT22;8482;54.396;18.590;2022-09-01T15:55:45;22.40;79.50
16728;DHT22;8482;54.396;18.590;2022-09-01T15:58:16;22.20;80.30
16728;DHT22;8482;54.396;18.590;2022-09-01T16:00:43;22.10;80.80
16728;DHT22;8482;54.396;18.590;2022-09-01T16:03:10;22.00;81.50
16728;DHT22;8482;54.396;18.590;2022-09-01T16:05:37;21.90;81.80
16728;DHT22;8482;54.396;18.590;2022-09-01T16:08:05;21.80;82.90
16728;DHT22;8482;54.396;18.590;2022-09-01T16:10:37;21.70;83.40
16728;DHT22;8482;54.396;18.590;2022-09-01T16:13:04;21.50;83.60
16728;DHT22;8482;54.396;18.590;2022-09-01T16:15:30;21.40;83.50
16728;DHT22;8482;54.396;18.590;2022-09-01T16:24:11;21.10;82.60
16728;DHT22;8482;54.396;18.590;2022-09-01T16:26:39;21.00;82.90
16728;DHT22;8482;54.396;18.590;2022-09-01T16:29:13;20.80;82.80
16728;DHT22;8482;54.396;18.590;2022-09-01T16:31:54;20.70;83.70
16728;DHT22;8482;54.396;18.590;2022-09-01T16:34:21;20.60;83.80
16728;DHT22;8482;54.396;18.590;2022-09-01T16:37:04;20.50;84.00
16728;DHT22;8482;54.396;18.590;2022-09-01T16:48:38;20.20;86.10
16728;DHT22;8482;54.396;18.590;2022-09-01T16:51:12;20.00;85.70
16728;DHT22;8482;54.396;18.590;2022-09-01T16:54:12;20.00;84.70
16728;DHT22;8482;54.396;18.590;2022-09-01T16:56:53;19.90;84.30
16728;DHT22;8482;54.396;18.590;2022-09-01T17:13:18;19.60;87.60
16728;DHT22;8482;54.396;18.590;2022-09-01T17:15:53;19.60;90.20
16728;DHT22;8482;54.396;18.590;2022-09-01T17:18:45;19.60;91.00
16728;DHT22;8482;54.396;18.590;2022-09-01T17:21:21;19.60;91.60
16728;DHT22;8482;54.396;18.590;2022-09-01T17:24:02;19.60;92.00
16728;DHT22;8482;54.396;18.590;2022-09-01T17:26:41;19.60;92.30
16728;DHT22;8482;54.396;18.590;2022-09-01T17:29:33;19.50;92.30
16728;DHT22;8482;54.396;18.590;2022-09-01T17:38:29;19.30;92.00
16728;DHT22;8482;54.396;18.590;2022-09-01T17:41:17;19.30;92.10
16728;DHT22;8482;54.396;18.590;2022-09-01T17:47:15;19.10;92.30